Time;durP1;ratioP1;P1;durP2;ratioP2;P2;SDS_P1;SDS_P2;PMS_P1;PMS_P2;Temp;Humidity;BMP_temperature;BMP_pressure;BME280_temperature;BME280_humidity;BME280_pressure;Samples;Min_cycle;Max_cycle;Signal;HPM_P1;HPM_P2
2022/01/26 00:07:15;;;;;;;110.68;32.38;;;2.80;99.90;;;;;;5009028;28;20554;-81
2022/01/26 00:09:41;;;;;;;114.30;33.88;;;2.80;99.90;;;;;;5009812;28;20049;-81
2022/01/26 00:12:09;;;;;;;126.13;38.83;;;2.80;99.90;;;;;;5011726;28;20072;-81
2022/01/26 00:14:34;;;;;;;118.65;36.70;;;2.80;99.90;;;;;;5011593;28;20528;-81
2022/01/26 00:17:01;;;;;;;126.43;38.95;;;2.70;99.90;;;;;;5009212;28;20931;-81
2022/01/26 00:19:42;;;;;;;111.55;35.25;;;2.80;99.90;;;;;;5010853;28;20056;-82
2022/01/26 00:22:08;;;;;;;109.32;31.08;;;2.80;99.90;;;;;;5010406;28;20042;-81
2022/01/26 00:27:09;;;;;;;125.05;36.80;;;2.80;99.90;;;;;;5007195;28;20050;-81
2022/01/26 00:29:38;;;;;;;105.97;34.78;;;2.80;99.90;;;;;;5007695;28;20061;-82
2022/01/26 00:40:30;;;;;;;125.70;36.60;;;2.70;99.90;;;;;;5008599;28;20566;-81
2022/01/26 00:43:01;;;;;;;128.10;40.47;;;2.70;99.90;;;;;;4990548;28;20050;-82
2022/01/26 00:45:34;;;;;;;128.52;36.03;;;2.80;99.90;;;;;;4989873;28;20057;-82
2022/01/26 00:48:05;;;;;;;124.03;37.67;;;2.70;99.90;;;;;;5006772;28;20054;-81
2022/01/26 00:50:33;;;;;;;121.00;37.80;;;2.70;99.90;;;;;;5008521;28;20497;-82
2022/01/26 00:52:59;;;;;;;126.13;36.83;;;2.80;99.90;;;;;;5007613;28;20045;-81
2022/01/26 00:55:25;;;;;;;123.85;39.15;;;2.70;99.90;;;;;;5007088;28;20097;-81
2022/01/26 00:57:50;;;;;;;107.05;35.22;;;2.80;99.90;;;;;;5008095;28;20073;-81
2022/01/26 01:00:21;;;;;;;113.10;36.90;;;2.80;99.90;;;;;;5009703;28;20114;-81
2022/01/26 01:02:47;;;;;;;115.53;32.85;;;2.70;99.90;;;;;;5009847;28;20069;-81
2022/01/26 01:05:19;;;;;;;121.70;40.22;;;2.70;99.90;;;;;;5009089;28;20128;-81
2022/01/26 01:07:48;;;;;;;120.18;34.90;;;2.70;99.90;;;;;;5007928;28;20058;-81
2022/01/26 01:10:17;;;;;;;116.93;36.90;;;2.70;99.90;;;;;;5009386;28;20050;-80
2022/01/26 01:12:44;;;;;;;126.85;36.20;;;2.70;99.90;;;;;;5008214;28;20061;-81
2022/01/26 01:15:13;;;;;;;121.78;37.10;;;2.70;99.90;;;;;;5008460;28;20054;-81
2022/01/26 01:17:45;;;;;;;113.85;34.15;;;2.70;99.90;;;;;;4990739;28;20069;-81
2022/01/26 01:22:54;;;;;;;118.85;35.90;;;2.70;99.90;;;;;;5008005;28;20050;-81
2022/01/26 01:30:45;;;;;;;127.35;37.85;;;2.70;99.90;;;;;;5010054;28;20049;-81
2022/01/26 01:33:17;;;;;;;108.25;34.35;;;2.70;99.90;;;;;;5007693;28;20123;-81
2022/01/26 01:35:44;;;;;;;118.05;36.40;;;2.70;99.90;;;;;;5009372;28;20088;-81
2022/01/26 01:38:17;;;;;;;123.63;38.58;;;2.70;99.90;;;;;;5009110;28;20049;-82
2022/01/26 01:40:49;;;;;;;122.90;37.00;;;2.70;99.90;;;;;;5008996;28;20058;-82
2022/01/26 01:43:17;;;;;;;133.93;41.05;;;2.70;99.90;;;;;;5007310;28;20046;-81
2022/01/26 01:45:50;;;;;;;115.10;38.88;;;2.60;99.90;;;;;;5007657;28;20088;-82
2022/01/26 01:48:21;;;;;;;113.53;35.95;;;2.70;99.90;;;;;;5008227;28;20049;-82
2022/01/26 01:50:50;;;;;;;122.65;36.85;;;2.70;99.90;;;;;;5008675;28;20046;-81
2022/01/26 01:53:17;;;;;;;121.25;37.17;;;2.70;99.90;;;;;;5010592;28;20583;-82
2022/01/26 01:55:47;;;;;;;110.75;34.95;;;2.60;99.90;;;;;;5009040;28;20050;-81
2022/01/26 01:58:14;;;;;;;124.43;40.28;;;2.70;99.90;;;;;;5011541;28;20064;-81
2022/01/26 02:00:39;;;;;;;120.63;38.95;;;2.70;99.90;;;;;;5012642;28;20046;-81
2022/01/26 02:03:05;;;;;;;127.03;38.72;;;2.60;99.90;;;;;;5011846;28;20075;-82
2022/01/26 02:05:31;;;;;;;107.95;36.90;;;2.60;99.90;;;;;;5012302;28;20054;-81
2022/01/26 02:07:56;;;;;;;132.20;41.13;;;2.60;99.90;;;;;;5011941;28;20111;-81
2022/01/26 02:10:24;;;;;;;117.07;38.20;;;2.60;99.90;;;;;;5012655;28;20192;-81
2022/01/26 02:13:00;;;;;;;108.50;35.42;;;2.70;99.90;;;;;;5012497;28;20054;-82
2022/01/26 02:15:33;;;;;;;120.25;39.38;;;2.60;99.90;;;;;;4994260;28;20061;-81
2022/01/26 02:53:48;;;;;;;110.65;35.85;;;2.60;99.90;;;;;;4963672;29;20067;-82
2022/01/26 02:56:26;;;;;;;118.32;37.63;;;2.50;99.90;;;;;;5007655;28;20115;-82
2022/01/26 03:01:48;;;;;;;128.90;38.78;;;2.60;99.90;;;;;;4984350;28;20163;-81
2022/01/26 03:04:39;;;;;;;117.22;37.17;;;2.60;99.90;;;;;;5011699;28;20462;-82
2022/01/26 03:09:48;;;;;;;118.82;36.80;;;2.50;99.90;;;;;;5010160;28;20460;-82
2022/01/26 03:12:23;;;;;;;127.32;38.60;;;2.50;99.90;;;;;;5011019;28;20046;-82
2022/01/26 03:14:55;;;;;;;125.13;38.72;;;2.60;99.90;;;;;;5011954;28;20057;-81
2022/01/26 03:20:05;;;;;;;104.22;33.83;;;2.60;99.90;;;;;;5012782;28;20061;-82
2022/01/26 03:28:16;;;;;;;122.53;38.53;;;2.50;99.90;;;;;;5011337;28;20065;-82
2022/01/26 03:33:51;;;;;;;108.30;34.17;;;3.00;99.90;;;;;;5010267;28;20432;-81
2022/01/26 03:36:12;;;;;;;128.93;36.53;;;2.60;99.90;;;;;;5011585;28;20088;-81
2022/01/26 03:38:50;;;;;;;111.40;35.40;;;2.60;99.90;;;;;;5012523;28;20092;-82
2022/01/26 03:43:42;;;;;;;120.35;38.67;;;2.50;99.90;;;;;;5010008;28;20477;-81
2022/01/26 03:46:08;;;;;;;120.18;38.00;;;2.60;99.90;;;;;;5010807;28;20052;-81
2022/01/26 03:48:34;;;;;;;127.15;37.45;;;2.70;99.90;;;;;;5012107;28;20529;-81
2022/01/26 03:51:00;;;;;;;110.03;35.88;;;2.40;99.90;;;;;;5011985;28;20477;-82
2022/01/26 03:53:27;;;;;;;98.50;32.17;;;2.50;99.90;;;;;;5011656;28;20053;-81
2022/01/26 03:55:52;;;;;;;100.07;31.73;;;2.50;99.90;;;;;;5010395;28;20122;-82
2022/01/26 03:58:18;;;;;;;113.93;34.85;;;2.40;99.90;;;;;;5010708;28;20511;-82
2022/01/26 04:00:44;;;;;;;116.40;35.90;;;2.50;99.90;;;;;;5010622;28;20184;-81
2022/01/26 04:03:09;;;;;;;130.52;36.70;;;2.40;99.90;;;;;;5010742;28;20121;-81
2022/01/26 04:05:35;;;;;;;116.65;37.63;;;2.40;99.90;;;;;;5010427;28;20065;-81
2022/01/26 04:08:07;;;;;;;119.72;37.30;;;2.50;99.90;;;;;;5010430;28;20061;-81
2022/01/26 04:13:01;;;;;;;118.00;36.92;;;2.50;99.90;;;;;;5008992;28;20461;-82
2022/01/26 04:15:31;;;;;;;110.10;36.25;;;2.50;99.90;;;;;;5008238;28;20092;-80
2022/01/26 04:17:58;;;;;;;114.40;34.47;;;2.50;99.90;;;;;;4991513;28;20042;-82
2022/01/26 04:20:27;;;;;;;104.40;34.03;;;2.50;99.90;;;;;;5010241;28;20057;-81
2022/01/26 04:23:09;;;;;;;115.55;33.05;;;2.50;99.90;;;;;;5009301;28;20053;-82
2022/01/26 04:25:35;;;;;;;109.38;35.05;;;2.60;99.90;;;;;;5009967;28;20077;-81
2022/01/26 04:28:06;;;;;;;112.90;36.05;;;2.50;99.90;;;;;;5008390;28;20121;-81
2022/01/26 04:30:32;;;;;;;101.78;32.70;;;2.50;99.90;;;;;;4975269;28;20049;-82
2022/01/26 04:33:03;;;;;;;113.18;33.75;;;2.50;99.90;;;;;;5008141;28;20045;-81
2022/01/26 04:35:29;;;;;;;100.15;34.80;;;2.50;99.90;;;;;;5007385;28;20042;-82
2022/01/26 04:40:22;;;;;;;109.57;34.50;;;2.50;99.90;;;;;;5009273;28;20046;-82
2022/01/26 04:43:01;;;;;;;99.95;33.53;;;2.50;99.90;;;;;;5009325;28;20046;-82
2022/01/26 04:45:27;;;;;;;115.10;39.53;;;2.50;99.90;;;;;;5008551;28;20107;-81
2022/01/26 04:47:52;;;;;;;105.18;37.30;;;2.50;99.90;;;;;;5007650;28;20045;-81
2022/01/26 04:50:18;;;;;;;114.25;40.47;;;2.40;99.90;;;;;;5007453;28;20057;-82
2022/01/26 04:52:46;;;;;;;103.97;33.33;;;2.40;99.90;;;;;;5008718;28;20058;-82
2022/01/26 04:55:13;;;;;;;97.57;31.80;;;2.40;99.90;;;;;;5007756;28;20083;-81
2022/01/26 04:57:38;;;;;;;102.88;33.72;;;2.40;99.90;;;;;;5007504;28;20493;-81
2022/01/26 05:00:08;;;;;;;101.47;33.22;;;2.40;99.90;;;;;;4989023;28;20058;-82
2022/01/26 05:02:34;;;;;;;95.30;31.48;;;2.40;99.90;;;;;;5005441;28;20054;-81
2022/01/26 05:05:00;;;;;;;96.35;32.75;;;2.40;99.90;;;;;;5006599;28;20050;-82
2022/01/26 05:07:26;;;;;;;99.90;35.15;;;2.40;99.90;;;;;;5008229;28;20050;-82
2022/01/26 05:09:51;;;;;;;104.18;34.78;;;2.30;99.90;;;;;;5008976;28;20432;-81
2022/01/26 05:12:18;;;;;;;97.85;34.60;;;2.30;99.90;;;;;;5008191;28;20049;-81
2022/01/26 05:14:46;;;;;;;99.93;33.70;;;2.40;99.90;;;;;;5007803;28;20508;-81
2022/01/26 05:17:13;;;;;;;87.13;30.10;;;2.40;99.90;;;;;;5008089;28;20061;-81
2022/01/26 05:19:38;;;;;;;98.97;32.92;;;2.30;99.90;;;;;;5009236;28;20053;-81
2022/01/26 05:22:05;;;;;;;93.07;30.23;;;2.40;99.90;;;;;;5007837;28;20432;-81
2022/01/26 05:24:30;;;;;;;96.10;31.92;;;2.40;99.90;;;;;;5007062;28;20077;-81
2022/01/26 05:26:56;;;;;;;88.30;33.03;;;2.40;99.90;;;;;;5007652;28;20456;-82
2022/01/26 05:29:22;;;;;;;96.32;33.40;;;2.40;99.90;;;;;;5009817;28;20038;-82
2022/01/26 05:31:48;;;;;;;87.63;31.55;;;2.40;99.90;;;;;;5009938;28;20539;-82
2022/01/26 05:34:13;;;;;;;88.53;30.45;;;2.30;99.90;;;;;;5011688;28;20054;-83
2022/01/26 05:36:39;;;;;;;93.70;30.35;;;2.40;99.90;;;;;;5011574;28;20077;-83
2022/01/26 05:39:05;;;;;;;91.47;31.40;;;2.40;99.90;;;;;;5012151;28;20085;-83
2022/01/26 05:41:31;;;;;;;81.55;29.00;;;2.30;99.90;;;;;;5013045;28;20077;-83
2022/01/26 05:43:56;;;;;;;88.10;29.67;;;2.30;99.90;;;;;;5011793;28;20060;-82
2022/01/26 05:46:37;;;;;;;83.05;29.83;;;2.30;99.90;;;;;;5012210;28;20080;-82
2022/01/26 05:49:03;;;;;;;86.18;29.30;;;2.40;99.90;;;;;;4994625;28;20153;-83
2022/01/26 05:51:32;;;;;;;79.72;28.95;;;2.40;99.90;;;;;;5010884;28;20090;-83
2022/01/26 05:53:58;;;;;;;88.88;30.55;;;2.30;99.90;;;;;;5011719;28;20061;-82
2022/01/26 05:56:24;;;;;;;77.88;28.42;;;2.40;99.90;;;;;;5013140;28;20045;-82
2022/01/26 05:58:49;;;;;;;83.35;28.83;;;2.40;99.90;;;;;;5011658;28;20504;-81
2022/01/26 06:01:15;;;;;;;76.90;26.63;;;2.40;99.90;;;;;;5011335;28;20101;-82
2022/01/26 06:03:41;;;;;;;87.72;30.20;;;2.40;99.90;;;;;;5011274;28;20066;-84
2022/01/26 06:06:07;;;;;;;80.13;30.58;;;2.40;99.90;;;;;;5011056;28;20179;-82
2022/01/26 06:08:33;;;;;;;80.97;29.30;;;2.40;99.90;;;;;;5012697;28;20041;-83
2022/01/26 06:10:59;;;;;;;72.05;25.08;;;2.40;99.90;;;;;;5014741;28;20046;-82
2022/01/26 06:13:25;;;;;;;77.55;28.00;;;2.40;99.90;;;;;;5013856;28;20046;-84
2022/01/26 06:15:51;;;;;;;79.82;28.00;;;2.40;99.90;;;;;;4992080;28;20053;-83
2022/01/26 06:18:17;;;;;;;80.88;27.08;;;2.40;99.90;;;;;;5010467;28;20060;-82
2022/01/26 06:20:43;;;;;;;76.28;26.92;;;2.40;99.90;;;;;;5009255;28;20049;-83
2022/01/26 06:23:09;;;;;;;74.80;27.80;;;2.40;99.90;;;;;;5010135;28;20056;-83
2022/01/26 06:25:35;;;;;;;83.68;30.10;;;2.40;99.90;;;;;;5011246;28;20129;-82
2022/01/26 06:28:06;;;;;;;84.32;26.45;;;2.40;99.90;;;;;;5010418;28;20045;-81
2022/01/26 06:30:31;;;;;;;72.90;24.50;;;2.50;99.90;;;;;;4977118;28;20046;-82
2022/01/26 06:32:57;;;;;;;68.28;25.23;;;2.40;99.90;;;;;;5010791;28;20201;-82
2022/01/26 06:35:23;;;;;;;74.30;25.80;;;2.40;99.90;;;;;;5010906;28;20495;-82
2022/01/26 06:37:49;;;;;;;77.25;28.25;;;2.40;99.90;;;;;;5010295;28;20037;-82
2022/01/26 06:40:15;;;;;;;80.40;25.52;;;2.40;99.90;;;;;;5010826;28;20040;-81
2022/01/26 06:42:52;;;;;;;78.25;25.40;;;2.40;99.90;;;;;;5010484;28;20082;-82
2022/01/26 06:45:20;;;;;;;72.70;25.85;;;2.40;99.90;;;;;;5011786;28;20090;-82
2022/01/26 06:47:55;;;;;;;75.38;28.95;;;2.40;99.90;;;;;;5011070;28;20046;-82
2022/01/26 06:50:21;;;;;;;75.95;27.25;;;2.40;99.90;;;;;;5010555;28;20523;-81
2022/01/26 06:52:47;;;;;;;78.25;28.38;;;2.40;99.90;;;;;;5011545;28;20141;-82
2022/01/26 06:55:14;;;;;;;77.18;28.38;;;2.40;99.90;;;;;;5010444;28;20050;-82
2022/01/26 06:57:40;;;;;;;69.28;24.42;;;2.40;99.90;;;;;;5012941;28;20053;-82
2022/01/26 07:00:07;;;;;;;75.80;27.17;;;2.40;99.90;;;;;;5031154;28;20116;-82
2022/01/26 07:02:32;;;;;;;72.93;25.67;;;2.40;99.90;;;;;;5031278;28;20064;-82
2022/01/26 07:04:58;;;;;;;71.35;26.58;;;2.50;99.90;;;;;;5011970;28;20049;-82
2022/01/26 07:07:24;;;;;;;60.00;24.27;;;2.40;99.90;;;;;;5010172;28;20049;-82
2022/01/26 07:09:49;;;;;;;70.95;24.83;;;2.40;99.90;;;;;;5008744;28;20068;-82
2022/01/26 07:12:15;;;;;;;77.90;25.83;;;2.40;99.90;;;;;;5023949;28;20397;-82
2022/01/26 07:21:01;;;;;;;82.25;29.02;;;2.40;99.90;;;;;;5030262;28;20112;-82
2022/01/26 07:23:02;;;;;;;71.28;28.05;;;2.40;99.90;;;;;;5028062;28;20493;-82
2022/01/26 07:25:28;;;;;;;82.65;30.35;;;2.40;99.90;;;;;;5027739;28;20530;-81
2022/01/26 07:27:55;;;;;;;77.53;25.73;;;2.40;99.90;;;;;;5029344;28;20041;-81
2022/01/26 07:30:21;;;;;;;81.18;28.02;;;2.40;99.90;;;;;;5028783;28;20423;-82
2022/01/26 07:32:46;;;;;;;79.93;28.77;;;2.40;99.90;;;;;;5027051;28;20064;-82
2022/01/26 07:35:12;;;;;;;80.47;31.17;;;2.40;99.90;;;;;;5010258;28;20053;-82
2022/01/26 07:37:38;;;;;;;80.20;29.05;;;2.40;99.90;;;;;;5007139;28;20064;-82
2022/01/26 07:40:06;;;;;;;87.50;30.30;;;2.40;99.90;;;;;;5024496;28;20131;-82
2022/01/26 07:42:33;;;;;;;81.32;28.88;;;2.40;99.90;;;;;;5029099;28;20128;-82
2022/01/26 07:45:00;;;;;;;93.95;35.20;;;2.40;99.90;;;;;;5028341;28;20052;-82
2022/01/26 07:47:25;;;;;;;82.25;30.23;;;2.40;99.90;;;;;;5029759;28;20045;-82
2022/01/26 07:49:54;;;;;;;86.97;32.83;;;2.40;99.90;;;;;;5011398;28;20064;-82
2022/01/26 07:52:20;;;;;;;91.10;31.65;;;2.50;99.90;;;;;;5028599;28;20506;-82
2022/01/26 07:54:50;;;;;;;101.10;37.17;;;2.50;99.90;;;;;;5028595;28;20508;-82
2022/01/26 07:57:17;;;;;;;97.78;35.25;;;2.50;99.90;;;;;;5027314;28;20053;-81
2022/01/26 07:59:43;;;;;;;92.45;34.92;;;2.50;99.90;;;;;;5011598;28;20068;-81
2022/01/26 08:02:08;;;;;;;91.68;35.25;;;3.00;99.90;;;;;;5011653;28;20099;-83
2022/01/26 08:04:34;;;;;;;96.78;34.35;;;2.60;99.90;;;;;;5027847;28;20049;-81
2022/01/26 08:07:01;;;;;;;95.65;36.55;;;2.60;99.90;;;;;;5028613;28;20046;-82
2022/01/26 08:09:26;;;;;;;99.03;37.65;;;2.80;99.90;;;;;;5027194;28;20068;-82
2022/01/26 08:11:52;;;;;;;101.63;36.90;;;2.70;99.90;;;;;;5028013;28;20057;-83
2022/01/26 08:14:18;;;;;;;93.60;37.13;;;2.80;99.90;;;;;;5026804;28;20487;-82
2022/01/26 08:16:44;;;;;;;95.47;33.08;;;2.70;99.90;;;;;;5027999;28;20550;-82
2022/01/26 08:19:12;;;;;;;100.88;36.90;;;2.70;99.90;;;;;;5028268;28;20053;-82
2022/01/26 08:21:38;;;;;;;109.72;42.47;;;3.50;99.90;;;;;;5028793;28;20212;-82
2022/01/26 08:24:12;;;;;;;105.70;35.33;;;2.70;99.90;;;;;;5027367;28;20076;-82
2022/01/26 08:26:43;;;;;;;113.03;42.67;;;2.70;99.90;;;;;;5029337;28;20049;-83
2022/01/26 08:29:15;;;;;;;115.82;44.90;;;2.70;99.90;;;;;;5027102;28;20053;-82
2022/01/26 08:31:41;;;;;;;99.47;36.65;;;2.80;99.90;;;;;;5027265;28;20567;-81
2022/01/26 08:34:07;;;;;;;106.47;42.13;;;2.80;99.90;;;;;;5027784;28;20369;-82
2022/01/26 08:36:33;;;;;;;116.63;41.97;;;2.80;99.90;;;;;;5024981;28;20065;-82
2022/01/26 08:38:59;;;;;;;115.25;42.50;;;2.80;99.90;;;;;;5025815;28;20056;-82
2022/01/26 08:41:24;;;;;;;113.13;42.63;;;2.80;99.90;;;;;;5026057;28;20049;-83
2022/01/26 08:43:50;;;;;;;104.60;40.50;;;2.80;99.90;;;;;;5025970;28;20788;-82
2022/01/26 08:46:18;;;;;;;114.60;42.63;;;2.80;99.90;;;;;;5025262;28;20583;-82
2022/01/26 08:48:44;;;;;;;117.15;43.88;;;2.80;99.90;;;;;;5025528;28;20053;-82
2022/01/26 08:51:10;;;;;;;114.20;43.65;;;2.90;99.90;;;;;;5026779;28;20045;-83
2022/01/26 08:53:35;;;;;;;120.82;43.78;;;2.90;99.90;;;;;;5026498;28;20121;-82
2022/01/26 08:56:01;;;;;;;107.10;37.67;;;2.90;99.90;;;;;;5027903;28;20061;-82
2022/01/26 08:58:27;;;;;;;123.43;46.25;;;2.90;99.90;;;;;;5026105;28;20493;-82
2022/01/26 09:00:54;;;;;;;126.93;47.90;;;3.00;99.90;;;;;;5024591;28;20079;-82
2022/01/26 09:03:20;;;;;;;124.15;45.65;;;3.00;99.90;;;;;;5026567;28;20068;-82
2022/01/26 09:05:46;;;;;;;129.13;48.47;;;3.00;99.90;;;;;;5024587;28;20049;-81
2022/01/26 09:08:12;;;;;;;127.65;44.35;;;3.10;99.90;;;;;;5025900;28;20041;-82
2022/01/26 09:10:39;;;;;;;123.18;47.90;;;3.00;99.90;;;;;;5004179;28;20046;-82
2022/01/26 09:13:05;;;;;;;131.40;49.13;;;3.10;99.90;;;;;;5021405;28;20062;-82
2022/01/26 09:15:31;;;;;;;115.75;48.00;;;3.10;99.90;;;;;;5025184;28;20084;-83
2022/01/26 09:18:00;;;;;;;111.78;40.17;;;3.10;99.90;;;;;;5025524;28;20054;-83
2022/01/26 09:20:26;;;;;;;124.95;45.63;;;3.20;99.90;;;;;;5024779;28;20438;-84
2022/01/26 09:22:52;;;;;;;132.80;49.88;;;3.20;99.90;;;;;;5024682;28;20081;-83
2022/01/26 09:25:17;;;;;;;126.50;47.13;;;3.20;99.90;;;;;;5026667;28;20049;-84
2022/01/26 09:27:43;;;;;;;114.68;44.42;;;3.30;99.90;;;;;;5008366;28;20184;-82
2022/01/26 09:30:10;;;;;;;119.78;46.47;;;3.20;99.90;;;;;;5025551;28;20059;-82
2022/01/26 09:32:36;;;;;;;116.50;44.33;;;3.30;99.90;;;;;;5005334;28;20359;-83
2022/01/26 09:35:02;;;;;;;124.20;51.30;;;3.30;99.90;;;;;;5018590;28;20053;-84
2022/01/26 09:37:28;;;;;;;120.90;47.08;;;3.30;99.90;;;;;;5011754;28;20046;-84
2022/01/26 09:39:55;;;;;;;125.32;47.78;;;3.40;99.90;;;;;;5003531;28;20064;-85
2022/01/26 09:42:20;;;;;;;119.82;42.83;;;3.40;99.90;;;;;;5016736;28;20536;-84
2022/01/26 09:44:46;;;;;;;124.28;47.08;;;3.40;99.90;;;;;;5002656;28;20054;-84
2022/01/26 09:47:12;;;;;;;121.00;49.08;;;3.50;99.90;;;;;;5002716;28;20111;-84
2022/01/26 09:49:38;;;;;;;116.93;46.17;;;3.50;99.90;;;;;;5002477;28;20046;-84
2022/01/26 09:52:19;;;;;;;114.75;43.72;;;3.50;99.90;;;;;;5003196;28;20118;-83
2022/01/26 09:54:44;;;;;;;116.00;44.45;;;3.60;99.90;;;;;;5010466;28;20037;-81
2022/01/26 09:57:10;;;;;;;106.65;45.75;;;3.60;99.90;;;;;;5025117;28;20049;-81
2022/01/26 09:59:36;;;;;;;111.68;47.17;;;3.60;99.90;;;;;;5005911;28;20045;-82
2022/01/26 10:02:03;;;;;;;111.10;46.40;;;3.60;99.90;;;;;;5001928;28;20050;-83
2022/01/26 10:04:36;;;;;;;105.93;42.83;;;3.60;99.90;;;;;;5003141;28;20222;-83
2022/01/26 10:15:34;;;;;;;100.78;41.72;;;3.80;99.90;;;;;;5002892;28;20069;-82
2022/01/26 10:18:07;;;;;;;99.32;43.30;;;3.90;99.90;;;;;;4997921;28;20475;-82
2022/01/26 10:20:43;;;;;;;108.28;42.33;;;3.90;99.90;;;;;;5008667;28;20058;-82
2022/01/26 10:23:13;;;;;;;92.18;41.42;;;3.90;99.90;;;;;;5024365;28;20519;-82
2022/01/26 10:25:41;;;;;;;95.78;40.97;;;4.10;99.90;;;;;;5028279;28;20048;-81
2022/01/26 10:28:09;;;;;;;108.22;43.25;;;4.00;99.90;;;;;;5029266;28;20064;-83
2022/01/26 10:30:35;;;;;;;95.88;39.75;;;4.00;99.90;;;;;;5026264;28;20652;-82
2022/01/26 10:33:08;;;;;;;98.85;40.03;;;4.00;99.90;;;;;;5028301;28;20053;-81
2022/01/26 10:35:37;;;;;;;109.30;45.97;;;4.00;99.90;;;;;;5010469;28;20046;-82
2022/01/26 10:38:03;;;;;;;98.45;39.05;;;4.00;99.90;;;;;;5032566;28;20045;-82
2022/01/26 10:40:31;;;;;;;101.00;44.40;;;4.10;99.90;;;;;;5012207;28;20133;-82
2022/01/26 10:43:06;;;;;;;111.20;46.58;;;4.10;99.90;;;;;;5026972;28;20185;-82
2022/01/26 10:45:46;;;;;;;103.00;42.92;;;4.00;99.90;;;;;;5028861;28;20045;-82
2022/01/26 10:48:28;;;;;;;110.50;44.95;;;4.00;99.90;;;;;;5011031;28;20345;-82
2022/01/26 10:53:44;;;;;;;113.45;46.08;;;4.10;99.90;;;;;;5022759;28;20107;-82
2022/01/26 10:56:09;;;;;;;104.32;41.03;;;4.10;99.90;;;;;;5029867;28;20045;-82
2022/01/26 10:58:35;;;;;;;121.25;46.17;;;4.10;99.90;;;;;;5029244;28;20041;-82
2022/01/26 11:01:01;;;;;;;115.03;44.45;;;5.20;99.90;;;;;;5028107;28;20103;-82
2022/01/26 11:03:30;;;;;;;105.63;44.92;;;4.10;99.90;;;;;;5012540;28;20111;-82
2022/01/26 11:06:04;;;;;;;109.13;45.10;;;4.20;99.90;;;;;;5017652;28;20422;-82
2022/01/26 11:08:30;;;;;;;92.43;40.25;;;4.20;99.90;;;;;;5031102;28;20516;-82
2022/01/26 11:10:57;;;;;;;95.03;38.28;;;4.30;99.90;;;;;;5030337;28;20057;-82
2022/01/26 11:13:33;;;;;;;98.55;39.53;;;4.30;99.90;;;;;;5029338;28;20486;-82
2022/01/26 11:16:13;;;;;;;98.57;41.20;;;4.30;99.90;;;;;;5029098;28;20329;-83
2022/01/26 11:18:50;;;;;;;95.15;38.25;;;4.40;99.90;;;;;;5029900;28;20053;-82
2022/01/26 11:21:38;;;;;;;82.18;38.38;;;4.40;99.90;;;;;;5009540;28;20523;-82
2022/01/26 11:24:24;;;;;;;93.30;39.50;;;4.40;99.90;;;;;;5016922;28;20045;-83
2022/01/26 11:27:03;;;;;;;93.45;39.33;;;4.50;99.90;;;;;;5029676;28;20092;-83
2022/01/26 11:29:33;;;;;;;93.65;36.95;;;5.50;99.90;;;;;;5027154;28;20075;-81
2022/01/26 11:32:12;;;;;;;93.05;37.28;;;4.50;99.90;;;;;;5028931;28;20052;-82
2022/01/26 11:34:41;;;;;;;89.80;37.55;;;4.60;99.90;;;;;;5028140;28;20097;-82
2022/01/26 11:37:11;;;;;;;95.32;38.08;;;4.50;99.90;;;;;;5008830;28;20260;-81
2022/01/26 11:45:13;;;;;;;88.22;37.22;;;4.50;99.90;;;;;;5025457;28;20147;-81
2022/01/26 11:48:05;;;;;;;104.18;43.70;;;4.60;99.90;;;;;;5024716;28;20049;-82
2022/01/26 11:50:31;;;;;;;97.97;40.20;;;4.60;99.90;;;;;;5025402;28;20503;-81
2022/01/26 11:53:05;;;;;;;98.15;37.13;;;4.60;99.90;;;;;;5024361;28;20457;-82
2022/01/26 11:55:37;;;;;;;93.65;38.63;;;4.60;99.90;;;;;;5024035;28;20540;-81
2022/01/26 11:58:12;;;;;;;99.13;37.00;;;4.50;99.90;;;;;;5024882;28;20365;-81
2022/01/26 12:01:06;;;;;;;108.70;38.33;;;4.60;99.90;;;;;;5024615;28;20114;-80
2022/01/26 12:03:34;;;;;;;103.45;40.58;;;4.50;99.90;;;;;;5026320;28;20441;-81
2022/01/26 12:06:01;;;;;;;105.30;39.78;;;4.50;99.90;;;;;;5026799;28;20128;-81
2022/01/26 12:08:32;;;;;;;99.57;38.70;;;4.40;99.90;;;;;;5026598;28;20100;-83
2022/01/26 12:10:58;;;;;;;109.63;40.08;;;4.40;99.90;;;;;;5027169;28;20404;-81
2022/01/26 12:13:27;;;;;;;103.70;38.92;;;4.40;99.90;;;;;;5026979;28;20049;-82
2022/01/26 12:16:03;;;;;;;93.90;34.20;;;4.40;99.90;;;;;;5025922;28;20086;-82
2022/01/26 12:18:40;;;;;;;102.70;40.28;;;4.40;99.90;;;;;;5026885;28;20049;-82
2022/01/26 12:38:23;;;;;;;95.68;37.28;;;4.70;99.90;;;;;;5027404;28;20108;-82
2022/01/26 12:43:38;;;;;;;83.00;35.55;;;4.60;99.90;;;;;;5027979;28;20052;-81
2022/01/26 12:46:10;;;;;;;96.22;34.03;;;4.60;99.90;;;;;;5027411;28;20100;-81
2022/01/26 12:48:38;;;;;;;89.93;31.45;;;4.60;99.90;;;;;;5027499;28;20041;-81
2022/01/26 12:51:07;;;;;;;87.57;35.17;;;4.60;99.90;;;;;;5010956;28;20060;-82
2022/01/26 12:53:35;;;;;;;95.90;35.80;;;4.50;99.90;;;;;;5007729;28;20053;-81
2022/01/26 12:56:10;;;;;;;90.78;35.28;;;4.50;99.90;;;;;;5025271;28;20045;-82
2022/01/26 12:58:38;;;;;;;106.40;38.38;;;4.50;99.90;;;;;;5026529;28;20064;-82
2022/01/26 13:01:07;;;;;;;87.57;33.60;;;4.50;99.90;;;;;;5026540;28;20050;-81
2022/01/26 13:03:38;;;;;;;95.68;36.17;;;4.50;99.90;;;;;;5026206;28;20049;-82
2022/01/26 13:06:24;;;;;;;86.78;33.42;;;4.40;99.90;;;;;;5008540;28;20064;-82
2022/01/26 13:08:52;;;;;;;82.85;31.35;;;4.50;99.90;;;;;;5017768;28;20084;-83
2022/01/26 13:11:25;;;;;;;71.43;29.70;;;4.50;99.90;;;;;;5007360;28;20053;-82
2022/01/26 13:14:02;;;;;;;84.30;30.67;;;4.50;99.90;;;;;;5024810;28;20057;-82
2022/01/26 13:16:35;;;;;;;84.03;33.30;;;4.60;99.90;;;;;;5007493;28;20427;-82
2022/01/26 13:24:10;;;;;;;78.15;32.50;;;4.70;99.90;;;;;;5025861;28;20049;-82
2022/01/26 13:26:48;;;;;;;87.53;34.03;;;4.70;99.90;;;;;;5024648;28;20064;-82
2022/01/26 13:29:28;;;;;;;75.03;32.55;;;4.80;99.90;;;;;;5024591;28;20814;-82
2022/01/26 13:37:21;;;;;;;86.72;31.27;;;4.80;99.90;;;;;;5023648;28;20061;-82
2022/01/26 13:39:56;;;;;;;79.20;30.15;;;4.90;99.90;;;;;;5024709;28;20049;-82
2022/01/26 13:53:22;;;;;;;86.80;32.25;;;4.90;99.90;;;;;;4933597;29;20110;-82
2022/01/26 13:56:02;;;;;;;73.88;30.25;;;4.90;99.90;;;;;;4946962;29;20488;-83
2022/01/26 14:00:58;;;;;;;64.80;27.95;;;5.00;99.90;;;;;;5026882;28;20092;-82
2022/01/26 14:03:29;;;;;;;83.50;31.95;;;5.00;99.90;;;;;;5021543;28;20104;-82
2022/01/26 14:05:55;;;;;;;77.03;29.70;;;5.00;99.90;;;;;;5007108;28;20081;-82
2022/01/26 14:08:21;;;;;;;68.82;30.63;;;5.00;99.90;;;;;;5007978;28;20448;-82
2022/01/26 14:10:49;;;;;;;77.80;31.67;;;5.10;99.90;;;;;;5022958;28;20060;-82
2022/01/26 14:13:19;;;;;;;53.50;24.52;;;5.10;99.90;;;;;;5045832;28;20076;-82
2022/01/26 14:15:48;;;;;;;76.63;32.50;;;5.10;99.90;;;;;;5026648;28;20049;-82
2022/01/26 14:20:48;;;;;;;71.40;26.80;;;5.30;99.90;;;;;;5027513;28;20365;-82
2022/01/26 14:23:43;;;;;;;80.68;32.08;;;5.30;99.90;;;;;;5027934;28;20193;-82
2022/01/26 14:26:10;;;;;;;70.78;30.38;;;5.30;99.90;;;;;;5006057;28;20394;-81
2022/01/26 14:28:36;;;;;;;69.47;27.80;;;5.30;99.90;;;;;;5007351;28;20348;-82
2022/01/26 14:31:22;;;;;;;68.57;30.55;;;5.40;99.90;;;;;;5006750;28;20473;-82
2022/01/26 14:36:46;;;;;;;75.80;30.10;;;5.30;99.90;;;;;;5025593;28;20049;-82
2022/01/26 15:10:02;;;;;;;82.45;32.80;;;5.20;99.90;;;;;;5023063;28;20057;-83
2022/01/26 15:33:22;;;;;;;71.22;27.70;;;5.20;99.90;;;;;;5021458;28;20149;-82
2022/01/26 15:40:00;;;;;;;63.33;28.08;;;5.20;99.90;;;;;;5004016;28;20150;-82
2022/01/26 15:57:53;;;;;;;73.13;29.02;;;5.20;99.90;;;;;;5024552;28;20057;-81
2022/01/26 16:38:49;;;;;;;74.35;30.98;;;5.30;99.90;;;;;;5024218;28;20053;-82
2022/01/26 17:11:28;;;;;;;62.55;24.90;;;5.30;99.90;;;;;;5023134;28;20053;-82
2022/01/26 17:47:26;;;;;;;65.50;27.42;;;5.20;99.90;;;;;;5027402;28;20057;-82
2022/01/26 18:17:01;;;;;;;74.22;28.30;;;5.30;99.90;;;;;;5027089;28;20053;-81
2022/01/26 18:33:18;;;;;;;58.25;25.77;;;5.40;99.90;;;;;;5027180;28;20057;-82
2022/01/26 18:49:34;;;;;;;57.90;27.45;;;5.50;99.90;;;;;;5026068;28;20057;-81
2022/01/26 18:52:01;;;;;;;54.35;24.63;;;5.50;99.90;;;;;;5026054;28;20046;-81
2022/01/26 18:54:31;;;;;;;55.22;24.40;;;5.50;99.90;;;;;;5025636;28;20124;-81
2022/01/26 18:56:59;;;;;;;50.78;23.85;;;5.50;99.90;;;;;;5007829;28;20054;-81
2022/01/26 18:59:25;;;;;;;50.03;23.35;;;5.50;99.90;;;;;;5026193;28;20049;-81
2022/01/26 19:01:53;;;;;;;50.58;22.23;;;5.60;99.90;;;;;;5025884;28;20053;-81
2022/01/26 19:04:27;;;;;;;56.70;24.55;;;5.60;99.90;;;;;;5026181;28;20493;-81